EFTP/TMP METAR and TAF weather

Enter ICAO airport designator
Station Type Date Time Source
EFTP METAR 2022/11/26 08:50 UTC NOAA

EFTP 260850Z AUTO 10005KT 9999 OVC003 M03/M04 Q1029


Station Type Date Time Source
EFTP Decoded METAR 2022/11/26 08:50 UTC NOAA

Tampere / Pirkkala, Finland (EFTP) 61-25N 023-35E 112M
Nov 26, 2022 - 03:50 AM EST / 2022.11.26 0850 UTC
Wind: from the E (100 degrees) at 6 MPH (5 KT):0
Visibility: greater than 7 mile(s):0
Sky conditions: overcast
Temperature: 26 F (-3 C)
Windchill: 19 F (-7 C):1
Dew Point: 24 F (-4 C)
Relative Humidity: 92%
Pressure (altimeter): 30.39 in. Hg (1029 hPa)
ob: EFTP 260850Z AUTO 10005KT 9999 OVC003 M03/M04 Q1029
cycle: 9

Station Type Date Time Source
EFTP TAF 2022/11/26 09:42 UTC NOAA

TAF EFTP 260833Z 2609/2709 10007KT 9999 OVC006
TEMPO 2609/2613 5000 -SN BKN010
TEMPO 2613/2621 BKN010
TEMPO 2700/2709 6000 -SN PROB40
TEMPO 2705/2709 3000 BKN010

Example: see airport list